createdAt,value
2023-05-17T00:00:11.553Z,100212.00
2023-05-17T00:00:53.612Z,100212.81
2023-05-17T00:01:35.282Z,100216.44
2023-05-17T00:02:17.075Z,100214.78
2023-05-17T00:02:59.001Z,100210.09
2023-05-17T00:03:41.215Z,100217.03
2023-05-17T00:04:23.319Z,100215.75
2023-05-17T00:05:05.594Z,100212.06
2023-05-17T00:05:47.381Z,100223.00
2023-05-17T00:06:29.255Z,100214.56
2023-05-17T00:07:11.017Z,100219.38
2023-05-17T00:07:52.688Z,100215.94
2023-05-17T00:08:34.377Z,100207.84
2023-05-17T00:09:16.186Z,100210.22
2023-05-17T00:09:57.851Z,100203.59
2023-05-17T00:10:39.575Z,100218.19
2023-05-17T00:11:21.584Z,100224.13
2023-05-17T00:12:03.587Z,100221.66
2023-05-17T00:12:46.163Z,100227.59
2023-05-17T00:13:27.910Z,100222.63
2023-05-17T00:14:09.688Z,100222.13
2023-05-17T00:14:51.416Z,100225.91
2023-05-17T00:15:33.139Z,100217.47
2023-05-17T00:16:14.913Z,100221.22
2023-05-17T00:16:56.676Z,100204.38
2023-05-17T00:17:38.534Z,100223.03
2023-05-17T00:18:20.634Z,100216.63
2023-05-17T00:19:02.421Z,100206.75
2023-05-17T00:19:44.201Z,100216.03
2023-05-17T00:20:25.983Z,100214.22
2023-05-17T00:21:07.705Z,100199.13
2023-05-17T00:21:49.464Z,100207.44
2023-05-17T00:22:31.259Z,100212.44
2023-05-17T00:23:12.957Z,100216.44
2023-05-17T00:23:54.696Z,100198.56
2023-05-17T00:24:36.466Z,100199.56
2023-05-17T00:25:18.230Z,100207.19
2023-05-17T00:26:00.040Z,100230.19
2023-05-17T00:26:41.750Z,100203.41
2023-05-17T00:27:23.474Z,100224.91
2023-05-17T00:28:05.395Z,100225.59
2023-05-17T00:28:47.250Z,100220.97
2023-05-17T00:29:29.844Z,100208.72
2023-05-17T00:30:11.674Z,100229.25
2023-05-17T00:30:53.406Z,100222.00
2023-05-17T00:31:35.185Z,100225.78
2023-05-17T00:32:16.867Z,100215.34
2023-05-17T00:32:58.604Z,100206.72
2023-05-17T00:33:40.696Z,100227.88
2023-05-17T00:34:22.447Z,100228.31
2023-05-17T00:35:05.456Z,100222.69
2023-05-17T00:35:47.244Z,100229.09
2023-05-17T00:36:28.973Z,100215.19
2023-05-17T00:37:10.793Z,100232.06
2023-05-17T00:37:52.575Z,100225.94
2023-05-17T00:38:34.261Z,100228.72
2023-05-17T00:39:16.540Z,100236.34
2023-05-17T00:39:58.241Z,100230.09
2023-05-17T00:40:39.982Z,100233.09
2023-05-17T00:41:21.702Z,100238.03
2023-05-17T00:42:04.127Z,100244.16
2023-05-17T00:42:45.880Z,100232.63
2023-05-17T00:43:27.816Z,100234.44
2023-05-17T00:44:09.618Z,100230.63
2023-05-17T00:44:51.364Z,100226.31
2023-05-17T00:45:33.101Z,100243.81
2023-05-17T00:46:16.119Z,100227.44
2023-05-17T00:46:59.780Z,100247.97
2023-05-17T00:47:42.685Z,100246.94
2023-05-17T00:48:27.724Z,100230.63
2023-05-17T00:49:09.752Z,100233.94
2023-05-17T00:49:51.582Z,100242.19
2023-05-17T00:50:33.837Z,100238.41
2023-05-17T00:51:16.701Z,100242.41
2023-05-17T00:51:59.364Z,100243.41
2023-05-17T00:52:41.338Z,100246.34
2023-05-17T00:53:23.491Z,100239.69
2023-05-17T00:54:06.295Z,100229.72
2023-05-17T00:54:48.310Z,100244.25
2023-05-17T00:55:30.750Z,100227.50
2023-05-17T00:56:12.911Z,100255.22
2023-05-17T00:56:54.901Z,100243.66
2023-05-17T00:57:37.749Z,100238.44
2023-05-17T00:58:19.500Z,100236.81
2023-05-17T00:59:04.001Z,100242.69
2023-05-17T00:59:46.114Z,100222.81
2023-05-17T01:00:28.243Z,100234.47
2023-05-17T01:01:10.121Z,100248.19
2023-05-17T01:01:52.611Z,100237.28
2023-05-17T01:02:34.430Z,100241.22
2023-05-17T01:03:18.097Z,100243.50
2023-05-17T01:04:00.200Z,100244.81
2023-05-17T01:04:42.161Z,100224.41
2023-05-17T01:05:23.862Z,100240.00
2023-05-17T01:06:06.345Z,100248.72
2023-05-17T01:06:50.541Z,100230.50
2023-05-17T01:07:32.341Z,100241.25
2023-05-17T01:08:14.122Z,100237.72
2023-05-17T01:08:56.064Z,100244.38
2023-05-17T01:09:38.361Z,100227.28
2023-05-17T01:10:20.222Z,100246.31
2023-05-17T01:11:02.007Z,100241.19
2023-05-17T01:12:01.799Z,100246.63
2023-05-17T01:12:54.272Z,100243.97
2023-05-17T01:14:01.263Z,100249.25
2023-05-17T01:15:04.297Z,100246.63
2023-05-17T01:15:53.457Z,100246.75
2023-05-17T01:16:42.160Z,100237.53
2023-05-17T01:17:50.872Z,100256.56
2023-05-17T01:18:34.125Z,100243.00
2023-05-17T01:19:41.711Z,100256.78
2023-05-17T01:20:38.066Z,100253.31
2023-05-17T01:21:45.037Z,100260.53
2023-05-17T01:22:45.336Z,100258.22
2023-05-17T01:23:48.924Z,100256.03
2023-05-17T01:24:44.502Z,100256.31
2023-05-17T01:25:42.264Z,100261.94
2023-05-17T01:26:44.098Z,100254.81
2023-05-17T01:27:28.423Z,100254.81
2023-05-17T01:28:11.517Z,100258.13
2023-05-17T01:28:54.933Z,100259.66
2023-05-17T01:29:38.952Z,100252.28
2023-05-17T01:30:22.710Z,100239.19
2023-05-17T01:31:05.261Z,100257.25
2023-05-17T01:31:48.971Z,100257.91
2023-05-17T01:32:33.521Z,100257.91
2023-05-17T01:33:16.430Z,100264.84
2023-05-17T01:33:58.932Z,100264.56
2023-05-17T01:34:42.984Z,100251.16
2023-05-17T01:35:25.340Z,100257.06
2023-05-17T01:36:08.553Z,100255.59
2023-05-17T01:36:50.365Z,100248.56
2023-05-17T01:37:32.251Z,100257.00
2023-05-17T01:38:14.041Z,100248.50
2023-05-17T01:38:55.824Z,100252.09
2023-05-17T01:39:37.720Z,100256.41
2023-05-17T01:40:20.300Z,100261.97
2023-05-17T01:41:07.902Z,100261.47
2023-05-17T01:42:07.246Z,100261.75
2023-05-17T01:42:56.672Z,100256.09
2023-05-17T01:43:48.001Z,100261.50
2023-05-17T01:44:30.792Z,100263.47
2023-05-17T01:45:25.925Z,100260.00
2023-05-17T01:46:16.647Z,100265.09
2023-05-17T01:47:12.251Z,100263.31
2023-05-17T01:48:11.323Z,100243.41
2023-05-17T01:49:16.156Z,100265.50
2023-05-17T01:50:00.700Z,100267.16
2023-05-17T01:50:43.796Z,100255.41
2023-05-17T01:51:33.337Z,100269.88
2023-05-17T01:52:26.070Z,100264.59
2023-05-17T01:53:11.038Z,100267.50
2023-05-17T01:54:02.128Z,100265.00
2023-05-17T01:55:05.806Z,100255.44
2023-05-17T01:55:51.968Z,100276.28
2023-05-17T01:56:48.043Z,100273.66
2023-05-17T01:57:35.349Z,100279.75
2023-05-17T01:58:21.695Z,100274.88
2023-05-17T01:59:06.617Z,100279.19
2023-05-17T01:59:49.803Z,100277.94
2023-05-17T02:00:31.821Z,100274.94
2023-05-17T02:01:15.821Z,100278.78
2023-05-17T02:02:07.349Z,100268.31
2023-05-17T02:02:50.759Z,100269.28
2023-05-17T02:03:32.761Z,100280.59
2023-05-17T02:04:14.593Z,100278.94
2023-05-17T02:04:56.407Z,100269.16
2023-05-17T02:05:38.258Z,100282.25
2023-05-17T02:06:21.132Z,100263.88
2023-05-17T02:07:05.262Z,100286.53
2023-05-17T02:07:46.990Z,100275.47
2023-05-17T02:08:28.735Z,100279.47
2023-05-17T02:09:10.691Z,100288.22
2023-05-17T02:09:53.539Z,100279.47
2023-05-17T02:10:35.518Z,100279.31
2023-05-17T02:11:18.316Z,100278.50
2023-05-17T02:11:59.999Z,100273.50
2023-05-17T02:12:41.793Z,100278.78
2023-05-17T02:13:23.472Z,100273.91
2023-05-17T02:14:05.215Z,100278.72
2023-05-17T02:14:47.256Z,100272.38
2023-05-17T02:15:29.149Z,100273.91
2023-05-17T02:16:11.180Z,100248.28
2023-05-17T02:16:53.010Z,100286.19
2023-05-17T02:17:34.815Z,100266.81
2023-05-17T02:18:16.726Z,100286.03
2023-05-17T02:18:58.734Z,100281.72
2023-05-17T02:19:40.524Z,100277.28
2023-05-17T02:20:22.454Z,100282.56
2023-05-17T02:21:04.590Z,100285.19
2023-05-17T02:21:46.414Z,100279.38
2023-05-17T02:22:30.829Z,100279.25
2023-05-17T02:23:12.873Z,100284.22
2023-05-17T02:23:54.590Z,100286.03
2023-05-17T02:24:36.450Z,100287.69
2023-05-17T02:25:18.314Z,100280.91
2023-05-17T02:26:00.127Z,100272.59
2023-05-17T02:26:43.268Z,100284.22
2023-05-17T02:27:25.152Z,100285.06
2023-05-17T02:28:08.190Z,100285.19
2023-05-17T02:28:50.537Z,100270.94
2023-05-17T02:29:33.119Z,100272.91
2023-05-17T02:30:18.115Z,100279.78
2023-05-17T02:31:00.101Z,100282.25
2023-05-17T02:31:41.807Z,100277.78
2023-05-17T02:32:23.602Z,100277.97
2023-05-17T02:33:05.529Z,100281.59
2023-05-17T02:33:47.363Z,100287.22
2023-05-17T02:34:29.038Z,100277.44
2023-05-17T02:35:10.777Z,100292.78
2023-05-17T02:35:52.468Z,100277.72
2023-05-17T02:36:34.938Z,100278.72
2023-05-17T02:37:16.681Z,100280.91
2023-05-17T02:37:59.769Z,100269.50
2023-05-17T02:38:41.496Z,100288.97
2023-05-17T02:39:23.805Z,100283.16
2023-05-17T02:40:10.592Z,100286.53
2023-05-17T02:40:52.394Z,100286.53
2023-05-17T02:41:34.121Z,100293.84
2023-05-17T02:42:15.839Z,100284.44
2023-05-17T02:42:57.640Z,100291.06
2023-05-17T02:43:39.336Z,100277.34
2023-05-17T02:44:21.054Z,100292.13
2023-05-17T02:45:02.970Z,100280.06
2023-05-17T02:45:45.586Z,100291.81
2023-05-17T02:46:28.113Z,100285.19
2023-05-17T02:47:09.919Z,100290.69
2023-05-17T02:47:51.998Z,100293.19
2023-05-17T02:48:33.825Z,100290.53
2023-05-17T02:49:15.603Z,100284.59
2023-05-17T02:49:57.361Z,100280.59
2023-05-17T02:50:39.874Z,100289.25
2023-05-17T02:51:24.111Z,100265.22
2023-05-17T02:52:06.050Z,100286.25
2023-05-17T02:52:47.846Z,100296.16
2023-05-17T02:53:29.690Z,100279.31
2023-05-17T02:54:11.636Z,100290.75
2023-05-17T02:54:53.491Z,100284.28
2023-05-17T02:55:35.589Z,100276.00
2023-05-17T02:56:17.256Z,100296.84
2023-05-17T02:56:59.129Z,100287.38
2023-05-17T02:57:41.058Z,100299.28
2023-05-17T02:58:22.961Z,100297.09
2023-05-17T02:59:05.316Z,100287.31
2023-05-17T02:59:48.597Z,100301.16
2023-05-17T03:00:30.529Z,100284.44
2023-05-17T03:01:14.967Z,100283.25
2023-05-17T03:01:57.535Z,100291.38
2023-05-17T03:02:39.492Z,100299.56
2023-05-17T03:03:21.940Z,100282.47
2023-05-17T03:04:04.122Z,100287.09
2023-05-17T03:04:46.384Z,100299.25
2023-05-17T03:05:28.434Z,100299.25
2023-05-17T03:06:11.487Z,100295.97
2023-05-17T03:06:53.452Z,100296.25
2023-05-17T03:07:35.203Z,100292.94
2023-05-17T03:08:17.535Z,100282.19
2023-05-17T03:09:00.780Z,100291.56
2023-05-17T03:09:42.923Z,100303.19
2023-05-17T03:10:24.618Z,100299.03
2023-05-17T03:11:06.392Z,100309.44
2023-05-17T03:11:48.121Z,100302.66
2023-05-17T03:12:35.056Z,100305.44
2023-05-17T03:13:16.870Z,100303.34
2023-05-17T03:13:58.591Z,100284.34
2023-05-17T03:14:42.539Z,100310.34
2023-05-17T03:15:26.721Z,100302.06
2023-05-17T03:16:09.453Z,100297.91
2023-05-17T03:16:51.225Z,100309.81
2023-05-17T03:17:33.167Z,100296.56
2023-05-17T03:18:15.542Z,100291.72
2023-05-17T03:18:58.203Z,100309.72
2023-05-17T03:19:40.155Z,100307.50
2023-05-17T03:20:22.523Z,100299.19
2023-05-17T03:21:04.680Z,100297.09
2023-05-17T03:21:46.807Z,100316.31
2023-05-17T03:22:29.238Z,100306.19
2023-05-17T03:23:13.073Z,100319.97
2023-05-17T03:24:04.969Z,100309.44
2023-05-17T03:24:47.468Z,100316.38
2023-05-17T03:25:29.396Z,100314.56
2023-05-17T03:26:11.513Z,100312.41
2023-05-17T03:26:59.553Z,100323.00
2023-05-17T03:27:41.949Z,100308.59
2023-05-17T03:28:24.031Z,100313.97
2023-05-17T03:29:05.886Z,100318.13
2023-05-17T03:29:47.674Z,100319.78
2023-05-17T03:30:29.476Z,100302.22
2023-05-17T03:31:15.009Z,100313.16
2023-05-17T03:31:56.798Z,100324.59
2023-05-17T03:32:41.763Z,100310.22
2023-05-17T03:33:23.624Z,100315.03
2023-05-17T03:34:05.514Z,100308.22
2023-05-17T03:34:47.387Z,100296.63
2023-05-17T03:35:29.252Z,100312.91
2023-05-17T03:36:14.903Z,100305.16
2023-05-17T03:36:56.652Z,100313.75
2023-05-17T03:37:38.565Z,100319.91
2023-05-17T03:38:20.665Z,100326.69
2023-05-17T03:39:02.447Z,100308.69
2023-05-17T03:39:44.701Z,100311.31
2023-05-17T03:40:26.415Z,100309.50
2023-05-17T03:41:08.389Z,100318.94
2023-05-17T03:41:52.121Z,100312.78
2023-05-17T03:42:35.395Z,100311.78
2023-05-17T03:43:17.562Z,100309.88
2023-05-17T03:43:59.460Z,100305.78
2023-05-17T03:44:41.512Z,100315.50
2023-05-17T03:45:23.243Z,100312.84
2023-05-17T03:46:05.057Z,100322.94
2023-05-17T03:46:46.761Z,100317.81
2023-05-17T03:47:29.289Z,100325.56
2023-05-17T03:48:11.200Z,100323.75
2023-05-17T03:48:52.942Z,100323.75
2023-05-17T03:49:34.736Z,100314.66
2023-05-17T03:50:16.542Z,100313.16
2023-05-17T03:50:58.291Z,100310.38
2023-05-17T03:51:40.082Z,100299.91
2023-05-17T03:52:21.841Z,100321.75
2023-05-17T03:53:03.804Z,100317.88
2023-05-17T03:53:46.155Z,100305.81
2023-05-17T03:54:27.858Z,100323.56
2023-05-17T03:55:09.749Z,100324.38
2023-05-17T03:55:51.526Z,100325.88
2023-05-17T03:56:33.312Z,100327.69
2023-05-17T03:57:15.081Z,100328.22
2023-05-17T03:57:56.903Z,100321.88
2023-05-17T03:58:39.619Z,100327.09
2023-05-17T03:59:21.386Z,100336.38
2023-05-17T04:00:07.204Z,100326.41
2023-05-17T04:00:56.474Z,100316.16
2023-05-17T04:01:38.159Z,100337.34
2023-05-17T04:02:20.064Z,100330.84
2023-05-17T04:03:03.174Z,100329.56
2023-05-17T04:03:45.067Z,100342.75
2023-05-17T04:04:26.971Z,100334.00
2023-05-17T04:05:09.358Z,100340.28
2023-05-17T04:05:51.162Z,100342.06
2023-05-17T04:06:33.314Z,100343.88
2023-05-17T04:07:15.062Z,100346.38
2023-05-17T04:07:56.780Z,100333.94
2023-05-17T04:08:38.533Z,100337.63
2023-05-17T04:09:20.350Z,100353.47
2023-05-17T04:10:03.115Z,100344.56
2023-05-17T04:10:46.108Z,100345.41
2023-05-17T04:11:28.281Z,100348.88
2023-05-17T04:12:12.354Z,100346.38
2023-05-17T04:12:54.353Z,100332.66
2023-05-17T04:13:37.632Z,100344.88
2023-05-17T04:14:19.890Z,100347.06
2023-05-17T04:15:02.179Z,100348.03
2023-05-17T04:15:44.205Z,100354.81
2023-05-17T04:16:48.601Z,100361.75
2023-05-17T04:17:29.318Z,100360.59
2023-05-17T04:18:11.153Z,100366.06
2023-05-17T04:18:54.115Z,100366.72
2023-05-17T04:19:36.025Z,100353.16
2023-05-17T04:20:17.951Z,100374.47
2023-05-17T04:20:59.907Z,100364.75
2023-05-17T04:21:41.666Z,100356.78
2023-05-17T04:22:23.493Z,100367.94
2023-05-17T04:23:05.605Z,100371.56
2023-05-17T04:23:49.927Z,100365.59
2023-05-17T04:24:31.714Z,100369.06
2023-05-17T04:25:13.614Z,100359.28
2023-05-17T04:25:56.820Z,100366.72
2023-05-17T04:26:39.956Z,100364.53
2023-05-17T04:27:22.672Z,100371.34
2023-05-17T04:28:05.319Z,100363.72
2023-05-17T04:28:47.127Z,100371.63
2023-05-17T04:29:28.960Z,100375.94
2023-05-17T04:30:11.155Z,100370.66
2023-05-17T04:30:53.428Z,100369.81
2023-05-17T04:31:35.235Z,100371.63
2023-05-17T04:32:18.048Z,100347.72
2023-05-17T04:33:01.052Z,100366.94
2023-05-17T04:33:43.056Z,100359.94
2023-05-17T04:34:26.231Z,100366.88
2023-05-17T04:35:09.793Z,100376.16
2023-05-17T04:35:54.658Z,100379.44
2023-05-17T04:36:37.336Z,100374.34
2023-05-17T04:37:20.082Z,100375.47
2023-05-17T04:38:04.910Z,100376.28
2023-05-17T04:38:47.199Z,100376.28
2023-05-17T04:39:32.646Z,100377.94
2023-05-17T04:40:14.877Z,100376.97
2023-05-17T04:41:06.556Z,100367.25
2023-05-17T04:41:50.788Z,100380.94
2023-05-17T04:42:34.500Z,100374.56
2023-05-17T04:43:16.661Z,100384.13
2023-05-17T04:43:59.723Z,100376.75
2023-05-17T04:44:47.060Z,100378.41
2023-05-17T04:45:29.500Z,100374.81
2023-05-17T04:46:12.733Z,100370.66
2023-05-17T04:46:54.519Z,100370.94
2023-05-17T04:47:37.212Z,100384.19
2023-05-17T04:48:20.733Z,100382.25
2023-05-17T04:49:03.268Z,100370.50
2023-05-17T04:49:45.543Z,100382.50
2023-05-17T04:50:27.402Z,100383.16
2023-05-17T04:51:09.192Z,100388.28
2023-05-17T04:51:51.009Z,100386.03
2023-05-17T04:52:33.287Z,100391.00
2023-05-17T04:53:15.788Z,100382.25
2023-05-17T04:54:00.923Z,100389.56
2023-05-17T04:54:43.978Z,100391.75
2023-05-17T04:55:26.594Z,100395.06
2023-05-17T04:56:08.595Z,100377.34
2023-05-17T04:56:50.749Z,100392.28
2023-05-17T04:57:45.133Z,100394.09
2023-05-17T04:58:29.704Z,100383.16
2023-05-17T04:59:13.927Z,100397.38
2023-05-17T04:59:55.744Z,100395.06
2023-05-17T05:00:37.512Z,100406.47
2023-05-17T05:01:20.363Z,100400.34
2023-05-17T05:02:02.204Z,100395.22
2023-05-17T05:02:44.557Z,100401.19
2023-05-17T05:03:28.028Z,100400.22
2023-05-17T05:04:10.444Z,100400.84
2023-05-17T05:04:56.551Z,100404.03
2023-05-17T05:05:38.461Z,100402.91
2023-05-17T05:06:22.052Z,100411.66
2023-05-17T05:07:03.972Z,100403.88
2023-05-17T05:07:45.999Z,100403.44
2023-05-17T05:08:28.384Z,100403.50
2023-05-17T05:09:11.040Z,100401.72
2023-05-17T05:09:53.881Z,100408.75
2023-05-17T05:10:37.227Z,100406.41
2023-05-17T05:11:19.332Z,100412.78
2023-05-17T05:12:01.040Z,100404.06
2023-05-17T05:12:43.031Z,100408.75
2023-05-17T05:13:24.842Z,100411.34
2023-05-17T05:14:07.822Z,100412.72
2023-05-17T05:14:49.567Z,100394.56
2023-05-17T05:15:32.413Z,100411.16
2023-05-17T05:16:15.142Z,100414.00
2023-05-17T05:16:57.963Z,100421.81
2023-05-17T05:17:39.791Z,100419.84
2023-05-17T05:18:21.737Z,100426.50
2023-05-17T05:19:03.884Z,100431.47
2023-05-17T05:19:46.087Z,100430.31
2023-05-17T05:20:28.365Z,100422.69
2023-05-17T05:21:11.701Z,100438.78
2023-05-17T05:21:53.603Z,100436.97
2023-05-17T05:22:35.730Z,100426.38
2023-05-17T05:23:18.804Z,100439.13
2023-05-17T05:24:04.250Z,100441.06
2023-05-17T05:24:46.057Z,100438.59
2023-05-17T05:25:28.647Z,100442.03
2023-05-17T05:26:13.075Z,100435.13
2023-05-17T05:26:54.859Z,100432.28
2023-05-17T05:27:37.293Z,100424.19
2023-05-17T05:28:19.067Z,100447.19
2023-05-17T05:29:01.133Z,100447.03
2023-05-17T05:29:43.656Z,100448.47
2023-05-17T05:30:26.504Z,100436.41
2023-05-17T05:31:09.665Z,100434.94
2023-05-17T05:31:57.800Z,100447.31
2023-05-17T05:32:39.860Z,100438.03
2023-05-17T05:33:21.728Z,100456.94
2023-05-17T05:34:03.703Z,100453.47
2023-05-17T05:34:47.087Z,100443.03
2023-05-17T05:35:30.537Z,100452.13
2023-05-17T05:36:13.464Z,100442.22
2023-05-17T05:36:58.301Z,100456.59
2023-05-17T05:37:40.113Z,100458.47
2023-05-17T05:38:22.018Z,100449.66
2023-05-17T05:39:03.978Z,100449.34
2023-05-17T05:39:47.070Z,100454.78
2023-05-17T05:40:29.007Z,100457.44
2023-05-17T05:41:10.983Z,100461.56
2023-05-17T05:41:52.671Z,100456.28
2023-05-17T05:42:34.718Z,100447.50
2023-05-17T05:43:16.583Z,100460.91
2023-05-17T05:43:58.428Z,100457.63
2023-05-17T05:44:40.138Z,100463.94
2023-05-17T05:45:22.769Z,100459.63
2023-05-17T05:46:08.186Z,100462.28
2023-05-17T05:46:50.015Z,100451.31
2023-05-17T05:47:32.087Z,100461.28
2023-05-17T05:48:14.313Z,100462.94
2023-05-17T05:48:56.371Z,100466.41
2023-05-17T05:49:38.304Z,100457.97
2023-05-17T05:50:20.247Z,100460.44
2023-05-17T05:51:03.217Z,100462.09
2023-05-17T05:51:45.068Z,100462.59
2023-05-17T05:52:26.800Z,100456.31
2023-05-17T05:53:18.272Z,100453.16
2023-05-17T05:54:05.025Z,100459.63
2023-05-17T05:54:46.990Z,100458.13
2023-05-17T05:55:28.769Z,100418.22
2023-05-17T05:56:11.084Z,100463.75
2023-05-17T05:56:53.595Z,100466.72
2023-05-17T05:57:35.874Z,100470.69
2023-05-17T05:58:17.573Z,100459.25
2023-05-17T05:59:00.323Z,100456.28
2023-05-17T05:59:42.423Z,100475.63
2023-05-17T06:00:24.544Z,100472.47
2023-05-17T06:01:07.102Z,100478.25
2023-05-17T06:01:49.361Z,100465.50
2023-05-17T06:02:31.062Z,100475.78
2023-05-17T06:03:12.813Z,100472.75
2023-05-17T06:03:54.584Z,100464.16
2023-05-17T06:04:45.022Z,100482.69
2023-05-17T06:05:27.724Z,100478.72
2023-05-17T06:06:10.229Z,100469.75
2023-05-17T06:06:52.302Z,100466.78
2023-05-17T06:07:34.102Z,100475.34
2023-05-17T06:08:16.065Z,100467.09
2023-05-17T06:08:59.544Z,100475.69
2023-05-17T06:09:42.719Z,100482.66
2023-05-17T06:10:24.564Z,100481.44
2023-05-17T06:11:06.716Z,100482.78
2023-05-17T06:11:48.943Z,100479.63
2023-05-17T06:12:30.950Z,100479.91
2023-05-17T06:13:15.856Z,100478.56
2023-05-17T06:13:57.625Z,100476.22
2023-05-17T06:14:39.389Z,100485.47
2023-05-17T06:15:21.099Z,100478.34
2023-05-17T06:16:03.022Z,100489.94
2023-05-17T06:16:44.853Z,100486.78
2023-05-17T06:17:26.733Z,100468.53
2023-05-17T06:18:08.612Z,100493.06
2023-05-17T06:18:51.422Z,100490.03
2023-05-17T06:19:33.660Z,100488.03
2023-05-17T06:20:16.446Z,100491.19
2023-05-17T06:20:58.240Z,100499.47
2023-05-17T06:21:40.436Z,100496.25
2023-05-17T06:22:22.229Z,100491.25
2023-05-17T06:23:05.111Z,100502.06
2023-05-17T06:23:46.944Z,100508.47
2023-05-17T06:24:28.709Z,100498.69
2023-05-17T06:25:13.946Z,100487.00
2023-05-17T06:25:55.880Z,100501.88
2023-05-17T06:26:37.727Z,100505.19
2023-05-17T06:27:19.381Z,100499.50
2023-05-17T06:28:02.972Z,100487.44
2023-05-17T06:28:44.695Z,100493.69
2023-05-17T06:29:26.502Z,100499.66
2023-05-17T06:30:08.719Z,100511.09
2023-05-17T06:30:51.858Z,100495.50
2023-05-17T06:31:34.050Z,100498.63
2023-05-17T06:32:17.209Z,100505.72
2023-05-17T06:32:59.127Z,100499.88
2023-05-17T06:33:41.174Z,100505.19
2023-05-17T06:34:23.043Z,100507.94
2023-05-17T06:35:05.560Z,100507.91
2023-05-17T06:35:56.074Z,100510.16
2023-05-17T06:36:39.087Z,100512.06
2023-05-17T06:37:20.872Z,100499.59
2023-05-17T06:38:02.840Z,100509.63
2023-05-17T06:38:44.685Z,100520.56
2023-05-17T06:39:26.518Z,100514.38
2023-05-17T06:40:16.038Z,100517.44
2023-05-17T06:40:58.896Z,100528.53
2023-05-17T06:41:40.788Z,100522.47
2023-05-17T06:42:22.670Z,100527.09
2023-05-17T06:43:05.389Z,100528.00
2023-05-17T06:43:47.103Z,100515.00
2023-05-17T06:44:29.018Z,100519.44
2023-05-17T06:45:11.521Z,100525.88
2023-05-17T06:45:53.202Z,100524.03
2023-05-17T06:46:34.954Z,100523.28
2023-05-17T06:47:18.521Z,100531.28
2023-05-17T06:48:00.522Z,100528.34
2023-05-17T06:48:42.557Z,100514.25
2023-05-17T06:49:24.542Z,100523.06
2023-05-17T06:50:07.391Z,100528.34
2023-05-17T06:50:49.111Z,100528.63
2023-05-17T06:51:31.191Z,100529.91
2023-05-17T06:52:15.270Z,100524.84
2023-05-17T06:52:57.015Z,100536.97
2023-05-17T06:53:38.737Z,100537.63
2023-05-17T06:54:20.554Z,100533.59
2023-05-17T06:55:02.387Z,100537.50
2023-05-17T06:55:44.582Z,100529.91
2023-05-17T06:56:26.871Z,100528.34
2023-05-17T06:57:10.069Z,100522.00
2023-05-17T06:57:51.823Z,100543.00
2023-05-17T06:58:35.472Z,100527.78
2023-05-17T06:59:17.204Z,100532.75
2023-05-17T06:59:58.938Z,100534.66
2023-05-17T07:00:41.117Z,100538.63
2023-05-17T07:01:22.815Z,100517.25
2023-05-17T07:02:04.979Z,100543.31
2023-05-17T07:02:47.074Z,100534.31
2023-05-17T07:03:29.203Z,100531.94
2023-05-17T07:04:13.345Z,100534.78
2023-05-17T07:04:56.803Z,100539.63
2023-05-17T07:05:38.673Z,100540.44
2023-05-17T07:06:20.664Z,100528.59
2023-05-17T07:07:02.434Z,100542.72
2023-05-17T07:07:44.297Z,100537.66
2023-05-17T07:08:26.030Z,100532.97
2023-05-17T07:09:10.419Z,100540.78
2023-05-17T07:09:52.101Z,100542.16
2023-05-17T07:10:33.862Z,100550.34
2023-05-17T07:11:15.695Z,100535.28
2023-05-17T07:11:57.450Z,100541.59
2023-05-17T07:12:39.199Z,100544.50
2023-05-17T07:13:21.061Z,100548.47
2023-05-17T07:14:02.800Z,100546.69
2023-05-17T07:14:44.537Z,100540.25
2023-05-17T07:15:26.477Z,100521.78
2023-05-17T07:16:08.718Z,100545.13
2023-05-17T07:16:50.588Z,100543.97
2023-05-17T07:17:32.507Z,100545.47
2023-05-17T07:18:14.420Z,100539.31
2023-05-17T07:18:56.797Z,100548.09
2023-05-17T07:19:41.379Z,100544.59
2023-05-17T07:20:23.373Z,100540.97
2023-05-17T07:21:05.100Z,100544.78
2023-05-17T07:21:46.929Z,100553.09
2023-05-17T07:22:28.690Z,100545.72
2023-05-17T07:23:10.415Z,100551.06
2023-05-17T07:23:52.141Z,100546.81
2023-05-17T07:24:35.807Z,100552.31
2023-05-17T07:25:21.457Z,100543.31
2023-05-17T07:26:03.216Z,100555.75
2023-05-17T07:26:45.908Z,100548.97
2023-05-17T07:27:27.828Z,100549.78
2023-05-17T07:28:09.557Z,100545.13
2023-05-17T07:28:51.835Z,100547.66
2023-05-17T07:29:33.555Z,100556.94
2023-05-17T07:30:15.641Z,100551.66
2023-05-17T07:30:57.335Z,100555.69
2023-05-17T07:31:39.209Z,100542.69
2023-05-17T07:32:20.964Z,100554.03
2023-05-17T07:33:02.783Z,100556.63
2023-05-17T07:33:44.669Z,100553.44
2023-05-17T07:34:26.433Z,100554.81
2023-05-17T07:35:08.326Z,100556.97
2023-05-17T07:35:50.111Z,100545.41
2023-05-17T07:36:32.097Z,100556.78
2023-05-17T07:37:13.849Z,100554.41
2023-05-17T07:37:55.539Z,100555.75
2023-05-17T07:38:37.415Z,100539.66
2023-05-17T07:39:19.185Z,100545.44
2023-05-17T07:40:00.867Z,100556.34
2023-05-17T07:40:42.711Z,100557.63
2023-05-17T07:41:24.560Z,100549.88
2023-05-17T07:42:06.848Z,100556.03
2023-05-17T07:42:48.718Z,100551.66
2023-05-17T07:43:30.904Z,100558.78
2023-05-17T07:44:13.747Z,100553.19
2023-05-17T07:44:55.543Z,100559.19
2023-05-17T07:45:37.289Z,100556.84
2023-05-17T07:46:19.126Z,100559.81
2023-05-17T07:47:00.996Z,100553.38
2023-05-17T07:47:42.876Z,100555.53
2023-05-17T07:48:24.779Z,100554.34
2023-05-17T07:49:06.761Z,100552.97
2023-05-17T07:49:48.648Z,100553.69
2023-05-17T07:50:30.836Z,100561.03
2023-05-17T07:51:12.575Z,100557.44
2023-05-17T07:51:55.522Z,100563.06
2023-05-17T07:52:37.386Z,100561.84
2023-05-17T07:53:19.076Z,100565.41
2023-05-17T07:54:05.288Z,100567.66
2023-05-17T07:54:47.080Z,100558.53
2023-05-17T07:55:29.082Z,100557.66
2023-05-17T07:56:10.950Z,100546.88
2023-05-17T07:56:55.200Z,100564.00
2023-05-17T07:57:37.107Z,100552.28
2023-05-17T07:58:19.031Z,100558.09
2023-05-17T07:59:00.837Z,100556.72
2023-05-17T07:59:42.544Z,100556.63
2023-05-17T08:00:24.614Z,100561.84
2023-05-17T08:01:06.411Z,100558.34
2023-05-17T08:01:48.366Z,100549.88
2023-05-17T08:02:30.180Z,100561.16
2023-05-17T08:03:12.026Z,100562.84
2023-05-17T08:03:53.962Z,100561.00
2023-05-17T08:04:36.247Z,100556.44
2023-05-17T08:05:17.947Z,100564.72
2023-05-17T08:05:59.755Z,100569.16
2023-05-17T08:06:43.357Z,100564.25
2023-05-17T08:07:25.182Z,100569.94
2023-05-17T08:08:06.909Z,100568.97
2023-05-17T08:08:48.611Z,100561.19
2023-05-17T08:09:30.401Z,100571.13
2023-05-17T08:10:12.258Z,100562.53
2023-05-17T08:10:54.159Z,100565.44
2023-05-17T08:11:36.082Z,100560.34
2023-05-17T08:12:17.899Z,100562.75